Baden Baden, Illinois
Current Conditions -  °F | °C
As of 5:58 AM on Sunday 25 Jan 2015 (Local Time) from KBLV Reporting Station
Light Rain Light Rain  
Wind Chill: 38°   Ceiling: 3900
Heat Index: 41°   Visibility: 10mi
Dew Point: 41°   Wind: 5mph
Humidity: 99%   Direction: 170°S
Pressure: 29.61"   Gusts: NA
Location:  38.7728°N, 89.5031°W
Report Text: KBLV 251158Z AUTO 17004KT 10SM -RA BKN039 05/05 A2961 RMK AO2 RAE1142DZB1116E1120B1142 SLP032 P0001 60002 70002 T00510050 10075 20050 56015
Loading
Personal Weather Stations






























Interactive Weather Map New forecast layout! Learn more

10-Day Weather Forecast

Advertisements
Track Severe Weather on mobile